Weather reports worldwide

Advertisment
Capo Spartivento, Italy (16469): temperature & dewpoint: 13.07.2018 13:00:00 - 19.07.2018 13:00:00 (CEST)Capo Spartivento, Italy (16469): wind speed: 13.07.2018 13:00:00 - 19.07.2018 13:00:00 (CEST)Capo Spartivento, Italy (16469): wind direction: 13.07.2018 13:00:00 - 19.07.2018 13:00:00 (CEST)Capo Spartivento, Italy (16469): reduced air pressure: 13.07.2018 13:00:00 - 19.07.2018 13:00:00 (CEST)Capo Spartivento, Italy (16469): precipitation: 13.07.2018 13:00:00 - 19.07.2018 13:00:00 (CEST)
Date & Time tt [°C] td [°C] ff [km/h] ff [kn] dd ppp [hPa] rr [mm]
19.07.2018 13:00:00 - - - - - - -
19.07.2018 12:00:00 30,8 16,7 8 4 S 1013,0 -
19.07.2018 11:00:00 29,7 19,1 8 4 SSE 1013,1 -
19.07.2018 10:00:00 29,2 19,8 5 3 SSE 1013,1 -
19.07.2018 09:00:00 28,2 20,7 8 4 S 1013,2 -
19.07.2018 08:00:00 28,5 15,7 2 1 SSE 1012,7 0,0
19.07.2018 07:00:00 27,3 15,3 5 3 WNW 1012,6 -
19.07.2018 06:00:00 26,9 19,5 4 2 SW 1012,5 -
19.07.2018 05:00:00 27,4 18,1 4 2 S 1012,4 -
19.07.2018 04:00:00 27,6 17,7 4 2 SW 1012,7 -
19.07.2018 03:00:00 26,8 19,4 2 1 S 1012,9 -
19.07.2018 02:00:00 27,2 16,4 8 4 WNW 1012,9 0,0
19.07.2018 01:00:00 27,1 16,0 8 4 WNW 1013,1 -
19.07.2018 00:00:00 27,4 19,9 8 4 WSW 1013,1 -
18.07.2018 23:00:00 27,6 21,8 8 4 SE 1013,0 -
18.07.2018 22:00:00 28,3 19,2 5 3 WSW 1012,9 -
18.07.2018 21:00:00 28,2 21,4 4 2 WSW 1012,4 -
18.07.2018 20:00:00 29,3 21,2 8 4 NE 1012,2 0,0
18.07.2018 19:00:00 30,2 20,1 9 5 ENE 1011,9 -
18.07.2018 18:00:00 31,6 21,4 5 3 E 1011,7 -
18.07.2018 17:00:00 31,5 23,0 8 4 S 1012,1 -
18.07.2018 16:00:00 32,3 24,3 8 4 ESE 1012,2 -
18.07.2018 15:00:00 30,7 23,8 8 4 ESE 1012,3 -
18.07.2018 14:00:00 30,9 22,2 8 4 E 1012,4 0,0
18.07.2018 13:00:00 30,6 21,4 11 6 SE 1012,7 -
18.07.2018 12:00:00 29,7 21,6 9 5 WSW 1012,7 -
18.07.2018 11:00:00 29,2 21,6 8 4 SW 1012,6 -
18.07.2018 10:00:00 28,3 22,3 5 3 SSE 1012,3 -
18.07.2018 09:00:00 28,1 22,3 5 3 S 1012,4 -
18.07.2018 08:00:00 27,7 20,7 5 3 NNE 1012,0 0,0
18.07.2018 07:00:00 26,2 21,4 8 4 WNW 1011,6 -
18.07.2018 06:00:00 27,0 22,3 8 4 W 1011,6 -
18.07.2018 05:00:00 26,4 22,0 2 1 SSE 1011,4 -
18.07.2018 04:00:00 26,3 21,5 4 2 SSW 1011,3 -
18.07.2018 03:00:00 26,2 20,7 9 5 N 1011,2 -
18.07.2018 02:00:00 26,8 19,6 2 1 ESE 1011,3 0,0
18.07.2018 01:00:00 27,0 16,8 9 5 SW 1011,6 -
18.07.2018 00:00:00 27,0 17,1 8 4 NW 1011,7 -
17.07.2018 23:00:00 27,1 17,2 4 2 NNW 1011,4 -
17.07.2018 22:00:00 28,2 16,7 5 3 SSW 1011,0 -
17.07.2018 21:00:00 28,2 16,4 4 2 S 1010,2 -
17.07.2018 20:00:00 29,6 16,0 5 3 ENE 1009,6 0,0
17.07.2018 19:00:00 29,8 14,7 22 12 WNW 1008,9 -
17.07.2018 18:00:00 30,1 16,1 21 11 SW 1008,9 -
17.07.2018 17:00:00 30,6 16,2 46 25 SW 1008,6 -
17.07.2018 16:00:00 31,9 12,2 29 16 SW 1008,6 -
17.07.2018 15:00:00 32,4 14,1 24 13 SW 1008,7 -
17.07.2018 14:00:00 31,9 19,5 13 7 WNW 1009,1 0,0
17.07.2018 13:00:00 31,7 21,8 15 8 SE 1008,9 -
17.07.2018 12:00:00 31,5 19,5 13 7 N 1008,8 -
17.07.2018 11:00:00 33,0 7,2 31 17 SW 1008,4 -
17.07.2018 10:00:00 29,6 24,6 8 4 WNW 1008,6 -
17.07.2018 09:00:00 29,0 22,7 5 3 N 1009,3 -
17.07.2018 08:00:00 27,5 23,3 8 4 NE 1009,3 0,0
17.07.2018 07:00:00 27,4 19,9 8 4 SSW 1009,2 -
17.07.2018 06:00:00 27,7 22,6 16 9 SSW 1009,2 -
17.07.2018 05:00:00 28,1 17,6 15 8 ESE 1009,6 -
17.07.2018 04:00:00 30,3 13,1 13 7 W 1009,6 -
17.07.2018 03:00:00 29,3 13,1 13 7 WNW 1010,2 -
17.07.2018 02:00:00 30,0 13,3 9 5 WNW 1010,5 0,0
17.07.2018 01:00:00 31,1 13,8 4 2 SSW 1011,3 -
17.07.2018 00:00:00 29,2 18,6 2 1 N 1011,4 -
16.07.2018 23:00:00 27,4 26,2 8 4 NNW 1011,8 -
16.07.2018 22:00:00 27,3 27,3 2 1 S 1012,8 -
16.07.2018 21:00:00 27,7 27,7 21 11 S 1012,7 -
16.07.2018 20:00:00 28,5 28,5 26 14 S 1012,3 0,0
16.07.2018 19:00:00 29,8 28,4 15 8 S 1012,3 -
16.07.2018 18:00:00 31,2 27,1 4 2 NNW 1011,8 -
16.07.2018 17:00:00 30,3 26,3 5 3 SE 1012,4 -
16.07.2018 16:00:00 31,0 26,5 8 4 SE 1012,5 -
16.07.2018 15:00:00 30,6 25,9 5 3 WSW 1013,3 -
16.07.2018 14:00:00 30,9 25,0 5 3 E 1013,5 0,0
16.07.2018 13:00:00 30,3 22,7 11 6 S 1014,1 -
16.07.2018 12:00:00 29,6 23,3 16 9 S 1014,1 -
16.07.2018 11:00:00 28,7 22,2 16 9 SSW 1013,9 -
16.07.2018 10:00:00 28,0 24,8 21 11 S 1013,8 -
16.07.2018 09:00:00 27,8 24,6 11 6 S 1013,5 -
16.07.2018 08:00:00 27,4 22,3 8 4 S 1012,9 0,0
16.07.2018 07:00:00 26,8 19,9 5 3 NNW 1012,6 -
16.07.2018 06:00:00 26,6 18,1 5 3 N 1012,1 -
16.07.2018 05:00:00 27,9 18,8 8 4 WNW 1012,3 -
16.07.2018 04:00:00 27,6 19,1 5 3 W 1012,3 -
16.07.2018 03:00:00 26,4 19,7 4 2 WNW 1012,3 -
16.07.2018 02:00:00 26,9 19,7 4 2 N 1012,3 0,0
16.07.2018 01:00:00 26,9 20,0 5 3 N 1012,5 -
16.07.2018 00:00:00 26,5 18,8 11 6 N 1012,6 -
15.07.2018 23:00:00 27,7 21,2 2 1 SSW 1013,0 -
15.07.2018 22:00:00 27,6 20,9 5 3 SSW 1012,6 -
15.07.2018 21:00:00 27,7 21,7 8 4 SSW 1012,0 -
15.07.2018 20:00:00 28,5 22,0 11 6 S 1011,7 0,0
15.07.2018 19:00:00 29,1 23,9 11 6 WSW 1011,8 -
15.07.2018 18:00:00 30,2 25,5 11 6 S 1011,8 -
15.07.2018 17:00:00 30,2 26,4 9 5 SSE 1012,1 -
15.07.2018 16:00:00 29,1 26,1 13 7 NNE 1012,1 -
15.07.2018 15:00:00 28,7 24,9 21 11 NNE 1012,2 -
15.07.2018 14:00:00 28,5 24,2 26 14 NNE 1012,5 0,0
15.07.2018 13:00:00 29,7 22,9 26 14 NNE 1012,7 -
15.07.2018 12:00:00 28,5 23,8 28 15 NNE 1012,9 -
15.07.2018 11:00:00 28,9 22,6 26 14 NNE 1012,9 -
15.07.2018 10:00:00 28,7 19,8 24 13 N 1012,6 -
15.07.2018 09:00:00 27,5 23,3 26 14 NE 1012,5 -
15.07.2018 08:00:00 27,0 21,5 15 8 NNW 1012,4 0,0
15.07.2018 07:00:00 25,5 21,3 22 12 NNW 1011,9 -
15.07.2018 06:00:00 24,9 23,8 18 10 NNW 1011,9 -
15.07.2018 05:00:00 24,9 21,9 13 7 NNW 1011,9 -
15.07.2018 04:00:00 25,5 21,7 9 5 N 1012,5 -
15.07.2018 03:00:00 26,2 23,8 2 1 SE 1012,7 -
15.07.2018 02:00:00 26,4 23,0 11 6 SSW 1013,1 0,0
15.07.2018 01:00:00 26,5 23,5 9 5 SSE 1013,6 -
15.07.2018 00:00:00 26,7 24,3 9 5 SSE 1013,8 -
14.07.2018 23:00:00 27,2 25,0 13 7 S 1014,3 -
14.07.2018 22:00:00 27,4 20,7 9 5 S 1014,6 -
14.07.2018 21:00:00 26,7 23,9 11 6 W 1014,4 -
14.07.2018 20:00:00 27,8 25,8 22 12 S 1014,2 0,0
14.07.2018 19:00:00 28,6 25,0 15 8 S 1014,5 -
14.07.2018 18:00:00 29,2 24,9 16 9 N 1014,5 -
14.07.2018 17:00:00 29,8 24,6 16 9 S 1014,8 -
14.07.2018 16:00:00 30,5 24,4 11 6 NE 1015,1 -
14.07.2018 15:00:00 30,3 23,7 9 5 SE 1015,2 -
14.07.2018 14:00:00 30,1 23,0 5 3 E 1015,4 0,0
14.07.2018 13:00:00 30,4 20,9 8 4 NE 1015,8 -
14.07.2018 12:00:00 30,4 19,1 9 5 N 1016,0 -
14.07.2018 11:00:00 30,1 17,2 15 8 NNE 1016,1 -
14.07.2018 10:00:00 29,7 16,8 15 8 NNE 1015,9 -
14.07.2018 09:00:00 29,6 16,0 16 9 NNE 1015,7 -
14.07.2018 08:00:00 29,0 14,4 21 11 NNW 1015,4 0,0
14.07.2018 07:00:00 27,6 12,8 15 8 NW 1014,9 -
14.07.2018 06:00:00 25,7 18,6 18 10 NNW 1015,1 -
14.07.2018 05:00:00 25,9 21,7 18 10 NNW 1015,0 -
14.07.2018 04:00:00 27,0 14,0 15 8 NW 1014,7 -
14.07.2018 03:00:00 28,5 12,8 8 4 NNW 1014,8 -
14.07.2018 02:00:00 29,0 12,8 5 3 NW 1014,8 0,0
14.07.2018 01:00:00 29,6 12,1 2 1 WNW 1014,9 -
14.07.2018 00:00:00 28,6 16,5 4 2 W 1015,3 -
13.07.2018 23:00:00 27,8 18,2 5 3 SSW 1015,4 -
13.07.2018 22:00:00 27,4 21,4 8 4 SSW 1015,2 -
13.07.2018 21:00:00 27,9 20,9 8 4 S 1014,7 -
13.07.2018 20:00:00 28,6 21,6 16 9 S 1014,6 0,0
13.07.2018 19:00:00 29,2 23,6 16 9 S 1014,4 -
13.07.2018 18:00:00 30,0 25,0 18 10 WSW 1014,6 -
13.07.2018 17:00:00 30,6 22,4 15 8 S 1014,7 -
13.07.2018 16:00:00 30,8 22,4 13 7 S 1015,1 -
13.07.2018 15:00:00 31,4 20,0 11 6 S 1015,3 -
13.07.2018 14:00:00 32,6 14,7 8 4 SSE 1015,6 0,0
13.07.2018 13:00:00 32,2 14,4 8 4 SSE 1016,0 -

tt = temperature
td = dewpoint
ff = wind speed
dd = wind direction
ppp = reduced air pressure
rr = precipitation

Next stations